Time;durP1;ratioP1;P1;durP2;ratioP2;P2;SDS_P1;SDS_P2;PMS_P1;PMS_P2;Temp;Humidity;BMP_temperature;BMP_pressure;BME280_temperature;BME280_humidity;BME280_pressure;Samples;Min_cycle;Max_cycle;Signal;HPM_P1;HPM_P2
2022/12/11 00:01:10;;;;;;;11.07;6.55;;;5.40;99.90;;;;;;5077687;28;20024;-81
2022/12/11 00:03:37;;;;;;;14.00;7.00;;;5.40;99.90;;;;;;5077068;28;20032;-80
2022/12/11 00:06:12;;;;;;;14.75;8.20;;;5.30;99.90;;;;;;5076784;28;20494;-80
2022/12/11 00:08:38;;;;;;;14.00;6.93;;;5.40;99.90;;;;;;5077526;28;20046;-81
2022/12/11 00:11:07;;;;;;;11.75;6.40;;;5.30;99.90;;;;;;5076725;28;20054;-81
2022/12/11 00:13:33;;;;;;;16.10;7.22;;;5.30;99.90;;;;;;5075649;28;20021;-80
2022/12/11 00:15:59;;;;;;;12.35;6.43;;;5.30;99.90;;;;;;5076721;28;20021;-80
2022/12/11 00:18:24;;;;;;;12.15;7.05;;;5.30;99.90;;;;;;5076590;28;20162;-80
2022/12/11 00:20:50;;;;;;;9.55;5.90;;;5.30;99.90;;;;;;5077202;28;20181;-81
2022/12/11 00:23:16;;;;;;;11.25;5.55;;;5.30;99.90;;;;;;5075555;28;20070;-81
2022/12/11 00:25:43;;;;;;;13.40;5.78;;;5.30;99.90;;;;;;5076648;28;20016;-83
2022/12/11 00:28:10;;;;;;;11.07;6.03;;;5.20;99.90;;;;;;5076326;28;20341;-80
2022/12/11 00:30:41;;;;;;;10.85;4.45;;;5.20;99.90;;;;;;5075453;28;20020;-81
2022/12/11 00:33:08;;;;;;;7.22;4.82;;;5.10;99.90;;;;;;5076457;28;20032;-81
2022/12/11 00:35:38;;;;;;;12.80;6.05;;;5.10;99.90;;;;;;5076719;28;20099;-80
2022/12/11 00:38:04;;;;;;;7.32;3.90;;;5.10;99.90;;;;;;5076605;28;20016;-80
2022/12/11 00:40:33;;;;;;;13.30;5.95;;;5.10;99.90;;;;;;5075152;28;20082;-80
2022/12/11 00:42:59;;;;;;;11.88;5.70;;;5.10;99.90;;;;;;5076637;28;20035;-83
2022/12/11 00:45:25;;;;;;;13.43;6.75;;;5.00;99.90;;;;;;5076457;28;20024;-81
2022/12/11 00:47:50;;;;;;;9.98;5.13;;;5.00;99.90;;;;;;5076071;28;20024;-80
2022/12/11 00:50:16;;;;;;;13.40;6.97;;;5.00;99.90;;;;;;5076236;28;20140;-82
2022/12/11 00:52:42;;;;;;;11.52;5.38;;;5.00;99.90;;;;;;5075985;28;20174;-81
2022/12/11 00:55:08;;;;;;;13.90;5.75;;;5.00;99.90;;;;;;5075941;28;20013;-80
2022/12/11 00:57:33;;;;;;;10.15;4.65;;;5.00;99.90;;;;;;5075140;28;20028;-82
2022/12/11 00:59:59;;;;;;;14.32;6.47;;;4.90;99.90;;;;;;5075166;28;20390;-80
2022/12/11 01:02:25;;;;;;;8.65;4.25;;;4.90;99.90;;;;;;5076331;28;20035;-81
2022/12/11 01:04:51;;;;;;;8.68;3.83;;;4.90;99.90;;;;;;5076158;28;20055;-81
2022/12/11 01:07:16;;;;;;;9.60;4.32;;;4.90;99.90;;;;;;5076205;28;20028;-79
2022/12/11 01:12:27;;;;;;;7.78;4.00;;;4.90;99.90;;;;;;5075658;28;20059;-80
2022/12/11 01:14:53;;;;;;;9.48;4.20;;;4.90;99.90;;;;;;5074488;28;20024;-80
2022/12/11 01:17:19;;;;;;;10.15;4.35;;;5.00;99.90;;;;;;5074500;28;20048;-82
2022/12/11 01:19:45;;;;;;;9.25;4.22;;;5.00;99.90;;;;;;5075871;28;20470;-81
2022/12/11 01:22:11;;;;;;;7.38;3.47;;;5.00;99.90;;;;;;5075671;28;20055;-80
2022/12/11 01:24:37;;;;;;;12.23;3.90;;;5.00;99.90;;;;;;5075861;28;20016;-82
2022/12/11 01:27:03;;;;;;;6.57;4.00;;;5.00;99.90;;;;;;5075965;28;20063;-80
2022/12/11 01:29:29;;;;;;;7.75;3.60;;;5.00;99.90;;;;;;5074206;28;20021;-82
2022/12/11 01:31:54;;;;;;;6.32;3.60;;;5.00;99.90;;;;;;5074319;28;20036;-81
2022/12/11 01:34:20;;;;;;;7.63;4.28;;;4.90;99.90;;;;;;5074304;28;20028;-80
2022/12/11 01:36:46;;;;;;;6.90;3.20;;;5.00;99.90;;;;;;5075133;28;20024;-79
2022/12/11 01:39:12;;;;;;;8.73;3.30;;;4.90;99.90;;;;;;5075314;28;20024;-80
2022/12/11 01:41:37;;;;;;;7.88;2.90;;;4.90;99.90;;;;;;5075188;28;20109;-80
2022/12/11 01:44:15;;;;;;;9.93;3.13;;;4.90;99.90;;;;;;5074981;28;20225;-81
2022/12/11 01:46:42;;;;;;;4.28;2.53;;;4.80;99.90;;;;;;5075128;28;20039;-79
2022/12/11 01:49:11;;;;;;;7.95;3.95;;;4.80;99.90;;;;;;5075073;28;20016;-81
2022/12/11 01:51:42;;;;;;;4.97;2.13;;;4.80;99.90;;;;;;5073778;28;20029;-80
2022/12/11 01:54:13;;;;;;;10.52;3.92;;;4.70;99.90;;;;;;5075267;28;20009;-81
2022/12/11 01:56:41;;;;;;;7.80;3.20;;;4.70;99.90;;;;;;5075059;28;20020;-81
2022/12/11 01:59:09;;;;;;;4.30;2.20;;;4.60;99.90;;;;;;5073623;28;20020;-81
2022/12/11 02:01:46;;;;;;;4.30;2.20;;;4.50;99.90;;;;;;5075067;28;20020;-81
2022/12/11 02:04:13;;;;;;;11.10;3.85;;;4.50;99.90;;;;;;5074621;28;20509;-81
2022/12/11 02:06:42;;;;;;;6.93;2.97;;;4.50;99.90;;;;;;5074719;28;20052;-80
2022/12/11 02:09:18;;;;;;;8.88;3.53;;;4.40;99.90;;;;;;5073604;28;20016;-81
2022/12/11 02:11:49;;;;;;;7.82;2.20;;;4.40;99.90;;;;;;5073415;28;20028;-80
2022/12/11 02:14:23;;;;;;;7.57;3.20;;;4.30;99.90;;;;;;5073525;28;20119;-80
2022/12/11 02:17:05;;;;;;;5.75;2.75;;;4.30;99.90;;;;;;5073450;28;20103;-80
2022/12/11 02:19:40;;;;;;;7.10;2.35;;;4.30;99.90;;;;;;5073333;28;20024;-80
2022/12/11 02:22:12;;;;;;;7.32;2.58;;;4.20;99.90;;;;;;5074646;28;20086;-80
2022/12/11 02:25:07;;;;;;;5.75;2.53;;;4.30;99.90;;;;;;5074764;28;20074;-80
2022/12/11 02:27:52;;;;;;;6.22;2.65;;;4.30;99.90;;;;;;5073608;28;20170;-81
2022/12/11 02:30:18;;;;;;;6.28;2.13;;;4.20;99.90;;;;;;5074559;28;20027;-81
2022/12/11 02:32:54;;;;;;;3.65;1.77;;;4.20;99.90;;;;;;5074239;28;20027;-81
2022/12/11 02:35:33;;;;;;;3.75;1.80;;;4.20;99.90;;;;;;5073453;28;20030;-82
2022/12/11 02:38:36;;;;;;;5.18;2.50;;;4.20;99.90;;;;;;5074315;28;20029;-79
2022/12/11 02:41:04;;;;;;;4.07;1.70;;;4.20;99.90;;;;;;5032108;28;20061;-81
2022/12/11 02:43:33;;;;;;;2.00;1.30;;;4.20;99.90;;;;;;5032102;28;20029;-81
2022/12/11 02:46:00;;;;;;;3.42;1.85;;;4.20;99.90;;;;;;5015340;28;20029;-81
2022/12/11 02:48:26;;;;;;;4.88;2.45;;;4.20;99.90;;;;;;5032027;28;20538;-80
2022/12/11 02:50:56;;;;;;;5.72;2.25;;;4.20;99.90;;;;;;5031968;28;20112;-79
2022/12/11 02:53:25;;;;;;;4.28;1.95;;;4.20;99.90;;;;;;5031791;28;20107;-81
2022/12/11 02:56:00;;;;;;;6.53;2.42;;;4.10;99.90;;;;;;5031914;28;20029;-81
2022/12/11 02:58:31;;;;;;;7.65;3.33;;;4.10;99.90;;;;;;5015209;28;20033;-79
2022/12/11 03:00:57;;;;;;;5.95;3.13;;;4.10;99.90;;;;;;5031983;28;20036;-80
2022/12/11 03:03:23;;;;;;;7.97;3.42;;;4.10;99.90;;;;;;5031838;28;20033;-80
2022/12/11 03:05:49;;;;;;;7.40;2.30;;;4.10;99.90;;;;;;5031699;28;20032;-80
2022/12/11 03:08:16;;;;;;;6.32;3.10;;;4.10;99.90;;;;;;5031460;28;20029;-80
2022/12/11 03:10:42;;;;;;;5.10;3.00;;;4.10;99.90;;;;;;5015483;28;20153;-79
2022/12/11 03:13:09;;;;;;;5.60;3.15;;;4.10;99.90;;;;;;5015078;28;20048;-79
2022/12/11 03:15:59;;;;;;;5.22;2.33;;;4.10;99.90;;;;;;5015003;28;20112;-80
2022/12/11 03:18:45;;;;;;;3.88;2.10;;;4.00;99.90;;;;;;5069771;28;20040;-79
2022/12/11 03:21:37;;;;;;;7.80;4.10;;;4.00;99.90;;;;;;5072232;28;20027;-79
2022/12/11 03:24:25;;;;;;;;;;;4.00;99.90;;;;;;5054576;28;20048;-80
2022/12/11 03:26:59;;;;;;;5.65;3.10;;;4.00;99.90;;;;;;5070245;28;19904;-81
2022/12/11 03:29:31;;;;;;;5.63;3.15;;;4.00;99.90;;;;;;5072459;28;20024;-79
2022/12/11 03:32:07;;;;;;;6.55;3.58;;;4.00;99.90;;;;;;5072438;28;20032;-79
2022/12/11 03:34:54;;;;;;;5.78;3.20;;;3.90;99.90;;;;;;5072501;28;20035;-79
2022/12/11 03:37:21;;;;;;;7.22;3.00;;;3.90;99.90;;;;;;5072451;28;20027;-80
2022/12/11 03:39:51;;;;;;;5.00;3.03;;;3.90;99.90;;;;;;5073336;28;20048;-79
2022/12/11 03:42:20;;;;;;;5.35;2.65;;;3.80;99.90;;;;;;5073600;28;20060;-79
2022/12/11 03:44:49;;;;;;;4.32;2.58;;;3.80;99.90;;;;;;5073412;28;20103;-80
2022/12/11 03:47:20;;;;;;;4.68;2.67;;;3.70;99.90;;;;;;5073790;28;20500;-80
2022/12/11 03:49:47;;;;;;;5.35;2.72;;;3.70;99.90;;;;;;5073244;28;20459;-79
2022/12/11 03:52:14;;;;;;;6.70;3.17;;;3.70;99.90;;;;;;5073226;28;20119;-80
2022/12/11 03:54:43;;;;;;;5.03;2.80;;;3.60;99.90;;;;;;5072132;28;20021;-79
2022/12/11 03:57:12;;;;;;;7.63;3.95;;;3.60;99.90;;;;;;5073369;28;20013;-79
2022/12/11 03:59:38;;;;;;;6.78;4.50;;;3.60;99.90;;;;;;5073593;28;20070;-79
2022/12/11 04:02:09;;;;;;;10.93;4.07;;;3.60;99.90;;;;;;5073141;28;20408;-80
2022/12/11 04:04:40;;;;;;;6.45;3.55;;;3.60;99.90;;;;;;5073360;28;20059;-79
2022/12/11 04:07:06;;;;;;;6.83;3.43;;;3.50;99.90;;;;;;5073088;28;20024;-81
2022/12/11 04:09:32;;;;;;;7.68;3.85;;;3.40;99.90;;;;;;5073743;28;20439;-79
2022/12/11 04:11:59;;;;;;;6.72;3.92;;;3.50;99.90;;;;;;5073190;28;20028;-79
2022/12/11 04:17:09;;;;;;;10.55;5.22;;;3.50;99.90;;;;;;5073184;28;20048;-81
2022/12/11 04:25:05;;;;;;;16.15;7.88;;;3.50;99.90;;;;;;5073197;28;20035;-80
2022/12/11 04:27:50;;;;;;;13.05;6.65;;;3.50;99.90;;;;;;5073754;28;20017;-81
2022/12/11 04:30:24;;;;;;;5.35;2.63;;;3.50;99.90;;;;;;5073473;28;20025;-81
2022/12/11 04:32:51;;;;;;;12.57;5.72;;;3.50;99.90;;;;;;5072712;28;20044;-78
2022/12/11 04:35:17;;;;;;;17.63;9.02;;;3.40;99.90;;;;;;5075722;28;20100;-79
2022/12/11 04:37:42;;;;;;;5.50;3.28;;;3.40;99.90;;;;;;5075632;28;20025;-80
2022/12/11 04:40:11;;;;;;;5.28;2.95;;;3.40;99.90;;;;;;5076511;28;20066;-80
2022/12/11 04:42:37;;;;;;;7.13;3.17;;;3.30;99.90;;;;;;5076584;28;20017;-80
2022/12/11 04:45:04;;;;;;;4.75;2.90;;;3.30;99.90;;;;;;5076382;28;20035;-81
2022/12/11 04:47:30;;;;;;;5.80;3.70;;;3.30;99.90;;;;;;5076302;28;20031;-82
2022/12/11 04:49:56;;;;;;;4.50;2.95;;;3.30;99.90;;;;;;5076434;28;20027;-81
2022/12/11 04:52:22;;;;;;;5.38;3.60;;;3.20;99.90;;;;;;5075899;28;20032;-81
2022/12/11 04:54:48;;;;;;;6.30;3.75;;;3.30;99.90;;;;;;5076845;28;20021;-80
2022/12/11 04:57:13;;;;;;;17.88;7.65;;;3.30;99.90;;;;;;5074964;28;20029;-80
2022/12/11 04:59:39;;;;;;;8.63;5.25;;;3.30;99.90;;;;;;5076137;28;20417;-80
2022/12/11 05:02:05;;;;;;;7.15;4.57;;;3.30;99.90;;;;;;5075003;28;20024;-81
2022/12/11 05:04:32;;;;;;;10.30;5.78;;;3.20;99.90;;;;;;5075952;28;20345;-80
2022/12/11 05:06:59;;;;;;;7.65;4.50;;;3.20;99.90;;;;;;5074448;28;20095;-80
2022/12/11 05:09:25;;;;;;;17.75;7.32;;;3.20;99.90;;;;;;5075013;28;20024;-80
2022/12/11 05:11:52;;;;;;;11.85;5.55;;;3.20;99.90;;;;;;5074008;28;20033;-81
2022/12/11 05:14:18;;;;;;;14.30;9.05;;;3.20;99.90;;;;;;5073911;28;20027;-81
2022/12/11 05:16:44;;;;;;;12.95;6.95;;;3.20;99.90;;;;;;5073785;28;20390;-80
2022/12/11 05:19:10;;;;;;;15.57;8.63;;;3.20;99.90;;;;;;5075248;28;20085;-80
2022/12/11 05:21:35;;;;;;;29.05;17.90;;;3.20;99.90;;;;;;5074971;28;20444;-80
2022/12/11 05:24:01;;;;;;;23.15;13.60;;;3.20;99.90;;;;;;5073851;28;20102;-80
2022/12/11 05:26:28;;;;;;;35.53;17.27;;;3.20;99.90;;;;;;5074803;28;20017;-81
2022/12/11 05:28:54;;;;;;;29.20;14.73;;;3.20;99.90;;;;;;5074275;28;20157;-81
2022/12/11 05:31:26;;;;;;;29.50;16.77;;;3.20;99.90;;;;;;5074780;28;20016;-81
2022/12/11 05:33:53;;;;;;;34.88;19.65;;;3.20;99.90;;;;;;5073797;28;20107;-82
2022/12/11 05:36:25;;;;;;;19.45;11.68;;;3.30;99.90;;;;;;5063293;28;20355;-81
2022/12/11 05:38:51;;;;;;;24.35;11.07;;;3.30;99.90;;;;;;5075242;28;20355;-81
2022/12/11 05:41:20;;;;;;;24.65;11.32;;;3.20;99.90;;;;;;5073737;28;20439;-83
2022/12/11 05:43:47;;;;;;;35.90;17.38;;;3.20;99.90;;;;;;5075309;28;20063;-83
2022/12/11 05:46:24;;;;;;;18.55;9.98;;;3.30;99.90;;;;;;5073656;28;20027;-81
2022/12/11 05:48:59;;;;;;;16.85;9.82;;;3.20;99.90;;;;;;5073878;28;20447;-81
2022/12/11 05:51:26;;;;;;;25.75;13.15;;;3.20;99.90;;;;;;5073989;28;20028;-82
2022/12/11 05:53:53;;;;;;;24.85;13.30;;;3.20;99.90;;;;;;5073806;28;20020;-82
2022/12/11 05:56:22;;;;;;;31.58;16.30;;;3.20;99.90;;;;;;5073712;28;20031;-83
2022/12/11 05:58:48;;;;;;;54.95;30.48;;;3.20;99.90;;;;;;5074822;28;20448;-81
2022/12/11 06:01:39;;;;;;;94.18;47.78;;;3.20;99.90;;;;;;5075132;28;20048;-81
2022/12/11 06:04:06;;;;;;;45.88;24.75;;;3.20;99.90;;;;;;5065829;28;20047;-81
2022/12/11 06:06:33;;;;;;;92.47;46.17;;;3.30;99.90;;;;;;5073920;28;20020;-83
2022/12/11 06:09:00;;;;;;;39.03;20.98;;;3.30;99.90;;;;;;5073457;28;20025;-81
2022/12/11 06:11:28;;;;;;;30.83;17.73;;;3.30;99.90;;;;;;5073484;28;20027;-79
2022/12/11 06:13:54;;;;;;;30.30;18.70;;;3.30;99.90;;;;;;5074798;28;20348;-79
2022/12/11 06:16:21;;;;;;;17.02;10.68;;;3.30;99.90;;;;;;5074561;28;20040;-79
2022/12/11 06:18:47;;;;;;;19.88;11.30;;;3.30;99.90;;;;;;5074654;28;20025;-79
2022/12/11 06:21:19;;;;;;;21.42;13.18;;;3.30;99.90;;;;;;5073321;28;20020;-80
2022/12/11 06:23:46;;;;;;;13.52;7.97;;;3.30;99.90;;;;;;5074460;28;20089;-80
2022/12/11 06:26:12;;;;;;;13.77;9.10;;;3.20;99.90;;;;;;5073320;28;20367;-81
2022/12/11 06:28:39;;;;;;;14.82;8.73;;;3.30;99.90;;;;;;5078958;28;20022;-81
2022/12/11 06:31:05;;;;;;;13.57;8.10;;;3.30;99.90;;;;;;5094559;28;20020;-80
2022/12/11 06:33:32;;;;;;;13.25;6.88;;;3.30;99.90;;;;;;5094388;28;20049;-81
2022/12/11 06:36:05;;;;;;;14.25;7.20;;;3.20;99.90;;;;;;5093043;28;20020;-82
2022/12/11 06:38:32;;;;;;;12.80;7.68;;;3.20;99.90;;;;;;5093257;28;20016;-81
2022/12/11 06:41:05;;;;;;;15.70;9.25;;;3.20;99.90;;;;;;5094613;28;20024;-80
2022/12/11 06:43:32;;;;;;;11.77;7.32;;;3.20;99.90;;;;;;5093423;28;20024;-80
2022/12/11 06:45:58;;;;;;;18.05;10.35;;;3.10;99.90;;;;;;5094827;28;20102;-82
2022/12/11 06:48:25;;;;;;;19.33;11.20;;;3.20;99.90;;;;;;5093627;28;20024;-80
2022/12/11 06:50:50;;;;;;;46.35;24.92;;;3.20;99.90;;;;;;5092952;28;20024;-82
2022/12/11 06:53:16;;;;;;;32.00;16.05;;;3.20;99.90;;;;;;5091144;28;20093;-81
2022/12/11 06:55:42;;;;;;;39.88;22.95;;;3.20;99.90;;;;;;5092443;28;20469;-81
2022/12/11 06:58:10;;;;;;;34.33;18.83;;;3.30;99.90;;;;;;5091186;28;20027;-82
2022/12/11 07:00:37;;;;;;;48.05;26.00;;;3.20;99.90;;;;;;5072502;28;20024;-82
2022/12/11 07:03:03;;;;;;;31.23;18.33;;;3.30;99.90;;;;;;5072242;28;20029;-82
2022/12/11 07:05:30;;;;;;;38.85;22.20;;;3.30;99.90;;;;;;5070802;28;20473;-82
2022/12/11 07:07:56;;;;;;;46.83;25.30;;;3.30;99.90;;;;;;5071741;28;20370;-82
2022/12/11 07:10:22;;;;;;;37.72;19.30;;;3.30;99.90;;;;;;5071077;28;20025;-81
2022/12/11 07:12:51;;;;;;;31.83;17.73;;;3.30;99.90;;;;;;5072599;28;20020;-81
2022/12/11 07:15:17;;;;;;;38.67;20.85;;;3.40;99.90;;;;;;5073541;28;20023;-81
2022/12/11 07:17:43;;;;;;;41.20;22.05;;;3.40;99.90;;;;;;5073686;28;20060;-80
2022/12/11 07:20:09;;;;;;;39.53;20.17;;;3.40;99.90;;;;;;5072376;28;20025;-82
2022/12/11 07:22:35;;;;;;;30.63;17.50;;;3.40;99.90;;;;;;5073853;28;20039;-80
2022/12/11 07:25:01;;;;;;;33.33;17.33;;;3.40;99.90;;;;;;5073980;28;20021;-80
2022/12/11 07:27:28;;;;;;;25.92;14.32;;;3.40;99.90;;;;;;5073630;28;20017;-80
2022/12/11 07:29:54;;;;;;;41.38;19.73;;;3.50;99.90;;;;;;5087880;28;20112;-82
2022/12/11 07:32:21;;;;;;;19.63;10.40;;;3.40;99.90;;;;;;5093637;28;20122;-81
2022/12/11 07:34:50;;;;;;;19.63;12.02;;;3.40;99.90;;;;;;5093442;28;20082;-81
2022/12/11 07:37:17;;;;;;;16.73;9.95;;;3.40;99.90;;;;;;5093781;28;20077;-82
2022/12/11 07:39:43;;;;;;;30.85;19.77;;;3.40;99.90;;;;;;5092450;28;20081;-81
2022/12/11 07:42:09;;;;;;;23.42;15.20;;;3.40;99.90;;;;;;5092842;28;20332;-80
2022/12/11 07:44:35;;;;;;;22.88;12.45;;;3.40;99.90;;;;;;5093765;28;20059;-81
2022/12/11 07:47:01;;;;;;;14.25;9.30;;;3.50;99.90;;;;;;5092274;28;20016;-81
2022/12/11 07:49:27;;;;;;;28.05;12.48;;;3.50;99.90;;;;;;5092489;28;20027;-81
2022/12/11 07:51:54;;;;;;;43.20;21.13;;;3.50;99.90;;;;;;5092318;28;20039;-81
2022/12/11 07:54:20;;;;;;;27.73;21.77;;;3.50;99.90;;;;;;5093589;28;20028;-80
2022/12/11 07:56:47;;;;;;;19.08;12.40;;;3.50;99.90;;;;;;5094017;28;20026;-82
2022/12/11 07:59:15;;;;;;;22.15;11.13;;;3.50;99.90;;;;;;5084399;28;20031;-80
2022/12/11 08:01:42;;;;;;;31.92;16.52;;;3.50;99.90;;;;;;5073263;28;20020;-82
2022/12/11 08:04:10;;;;;;;43.00;20.33;;;3.50;99.90;;;;;;5072160;28;20020;-82
2022/12/11 08:06:38;;;;;;;64.03;28.98;;;3.60;99.90;;;;;;5073367;28;20455;-80
2022/12/11 08:09:06;;;;;;;52.83;26.50;;;3.60;99.90;;;;;;5075348;28;20035;-79
2022/12/11 08:11:33;;;;;;;26.02;15.93;;;3.60;99.90;;;;;;5075270;28;20020;-79
2022/12/11 08:13:59;;;;;;;27.83;17.05;;;3.60;99.90;;;;;;5075454;28;20025;-80
2022/12/11 08:16:25;;;;;;;22.20;13.35;;;3.60;99.90;;;;;;5076225;28;20033;-80
2022/12/11 08:18:51;;;;;;;30.95;16.85;;;3.70;99.90;;;;;;5076697;28;20482;-79
2022/12/11 08:21:20;;;;;;;31.30;17.77;;;3.70;99.90;;;;;;5075384;28;20027;-81
2022/12/11 08:23:47;;;;;;;29.80;16.75;;;3.80;99.90;;;;;;5075111;28;20035;-80
2022/12/11 08:26:21;;;;;;;41.80;24.48;;;3.80;99.90;;;;;;5076023;28;20024;-79
2022/12/11 08:28:47;;;;;;;31.05;16.58;;;3.90;99.90;;;;;;5074913;28;20024;-79
2022/12/11 08:31:14;;;;;;;33.97;17.02;;;3.90;99.90;;;;;;5074949;28;20399;-81
2022/12/11 08:33:40;;;;;;;41.45;24.33;;;3.90;99.90;;;;;;5076156;28;20090;-80
2022/12/11 08:36:09;;;;;;;43.58;24.65;;;4.00;99.90;;;;;;5074598;28;20056;-79
2022/12/11 08:38:35;;;;;;;45.22;23.27;;;4.00;99.90;;;;;;5075000;28;20016;-80
2022/12/11 08:41:12;;;;;;;41.97;22.80;;;4.00;99.90;;;;;;5076121;28;20471;-79
2022/12/11 08:43:38;;;;;;;35.72;19.02;;;4.10;99.90;;;;;;5076525;28;20396;-80
2022/12/11 08:46:05;;;;;;;38.28;18.63;;;4.00;99.90;;;;;;5075768;28;20056;-79
2022/12/11 08:48:32;;;;;;;25.90;15.38;;;4.10;99.90;;;;;;5074450;28;20455;-80
2022/12/11 08:51:00;;;;;;;32.05;16.70;;;4.10;99.90;;;;;;5074331;28;20035;-80
2022/12/11 08:53:30;;;;;;;65.68;29.67;;;4.20;99.90;;;;;;5075879;28;20032;-81
2022/12/11 08:56:10;;;;;;;55.55;22.17;;;4.20;99.90;;;;;;5076068;28;20021;-81
2022/12/11 08:58:36;;;;;;;33.53;15.75;;;4.20;99.90;;;;;;5075694;28;20017;-80
2022/12/11 09:01:11;;;;;;;46.25;20.98;;;4.20;99.90;;;;;;5075663;28;20111;-79
2022/12/11 09:03:38;;;;;;;42.78;19.58;;;4.20;99.90;;;;;;5074340;28;20344;-79
2022/12/11 09:06:09;;;;;;;31.63;16.50;;;4.20;99.90;;;;;;5072794;28;20025;-79
2022/12/11 09:08:35;;;;;;;29.95;16.33;;;4.10;99.90;;;;;;5074305;28;20020;-80
2022/12/11 09:11:06;;;;;;;31.55;17.50;;;4.10;99.90;;;;;;5075003;28;20032;-81
2022/12/11 09:13:32;;;;;;;31.13;16.37;;;4.20;99.90;;;;;;5075442;28;20391;-80
2022/12/11 09:15:58;;;;;;;51.72;25.55;;;4.30;99.90;;;;;;5074076;28;20020;-80
2022/12/11 09:18:24;;;;;;;43.22;22.73;;;4.30;99.90;;;;;;5070365;28;20127;-80
2022/12/11 09:21:15;;;;;;;38.28;19.98;;;4.40;99.90;;;;;;5075407;28;20091;-80
2022/12/11 09:23:41;;;;;;;26.75;14.85;;;4.40;99.90;;;;;;5074662;28;20115;-79
2022/12/11 09:26:11;;;;;;;28.25;15.70;;;4.40;99.90;;;;;;5075691;28;20028;-79
2022/12/11 09:28:38;;;;;;;36.28;18.42;;;4.40;99.90;;;;;;5075933;28;20033;-79
2022/12/11 09:31:10;;;;;;;34.17;17.52;;;4.40;99.90;;;;;;5074364;28;20029;-79
2022/12/11 09:33:36;;;;;;;41.50;20.45;;;4.50;99.90;;;;;;5075214;28;20028;-80
2022/12/11 09:36:03;;;;;;;36.08;18.85;;;4.60;99.90;;;;;;5075296;28;20588;-81
2022/12/11 09:38:30;;;;;;;38.47;19.38;;;4.60;99.90;;;;;;5074764;28;20071;-79
2022/12/11 09:40:56;;;;;;;33.75;18.00;;;4.60;99.90;;;;;;5075022;28;20055;-80
2022/12/11 09:43:37;;;;;;;35.45;18.10;;;4.60;99.90;;;;;;5073699;28;20071;-80
2022/12/11 09:46:09;;;;;;;37.30;18.00;;;4.60;99.90;;;;;;5073128;28;20024;-78
2022/12/11 09:48:36;;;;;;;39.83;19.60;;;4.50;99.90;;;;;;5074756;28;20063;-78
2022/12/11 09:51:17;;;;;;;39.58;19.65;;;4.50;99.90;;;;;;5074064;28;20081;-79
2022/12/11 09:53:44;;;;;;;43.45;20.90;;;4.60;99.90;;;;;;5074035;28;20032;-80
2022/12/11 09:56:12;;;;;;;53.08;27.27;;;4.80;99.90;;;;;;5074685;28;20475;-79
2022/12/11 09:59:00;;;;;;;57.00;28.98;;;4.90;99.90;;;;;;5073435;28;20020;-79
2022/12/11 10:02:14;;;;;;;40.65;20.92;;;5.20;99.90;;;;;;5074433;28;20359;-80
2022/12/11 10:04:52;;;;;;;37.08;18.02;;;5.10;99.90;;;;;;5069079;28;20041;-79
2022/12/11 10:07:41;;;;;;;38.78;19.75;;;5.00;99.90;;;;;;5067845;28;20062;-80
2022/12/11 10:10:34;;;;;;;33.45;16.38;;;4.90;99.90;;;;;;5074103;28;20501;-80
2022/12/11 10:13:14;;;;;;;33.78;18.45;;;4.80;99.90;;;;;;5074224;28;20055;-80
2022/12/11 10:15:55;;;;;;;36.53;19.58;;;4.70;99.90;;;;;;5073983;28;20035;-80
2022/12/11 10:18:25;;;;;;;37.10;19.38;;;4.70;99.90;;;;;;5074250;28;20115;-79
2022/12/11 10:20:52;;;;;;;40.63;21.83;;;4.60;99.90;;;;;;5074014;28;20016;-79
2022/12/11 10:23:35;;;;;;;55.17;27.52;;;4.60;99.90;;;;;;5074415;28;20028;-80
2022/12/11 10:26:19;;;;;;;72.07;33.35;;;4.60;99.90;;;;;;5074082;28;20036;-81
2022/12/11 10:28:45;;;;;;;60.85;29.27;;;4.60;99.90;;;;;;5074026;28;20127;-78
2022/12/11 10:31:27;;;;;;;74.63;36.05;;;4.60;99.90;;;;;;5071721;28;20538;-79
2022/12/11 10:34:11;;;;;;;50.45;26.75;;;4.60;99.90;;;;;;5073773;28;20032;-80
2022/12/11 10:36:39;;;;;;;54.97;29.13;;;4.50;99.90;;;;;;5073413;28;20024;-80
2022/12/11 10:39:17;;;;;;;58.08;28.60;;;4.50;99.90;;;;;;5074543;28;20025;-80
2022/12/11 10:41:46;;;;;;;64.90;31.50;;;4.40;99.90;;;;;;5073677;28;20063;-79
2022/12/11 10:44:20;;;;;;;67.07;35.72;;;4.40;99.90;;;;;;5073774;28;20039;-79
2022/12/11 10:47:04;;;;;;;74.82;33.22;;;4.40;99.90;;;;;;5074142;28;20129;-78
2022/12/11 10:49:33;;;;;;;74.00;34.22;;;4.40;99.90;;;;;;5073200;28;20025;-80
2022/12/11 10:52:00;;;;;;;75.65;34.80;;;4.50;99.90;;;;;;5073846;28;20066;-79
2022/12/11 10:54:42;;;;;;;96.55;44.28;;;4.50;99.90;;;;;;5073479;28;20016;-78
2022/12/11 10:57:09;;;;;;;;;;;4.50;99.90;;;;;;5074049;28;20451;-78
2022/12/11 10:59:48;;;;;;;94.45;44.75;;;4.50;99.90;;;;;;5073548;28;19905;-78
2022/12/11 11:02:21;;;;;;;72.35;32.00;;;4.50;99.90;;;;;;5068959;28;20119;-78
2022/12/11 11:04:47;;;;;;;109.65;46.28;;;4.50;99.90;;;;;;5073529;28;20025;-80
2022/12/11 11:07:17;;;;;;;78.28;34.72;;;4.50;99.90;;;;;;5073099;28;20029;-80
2022/12/11 11:09:42;;;;;;;74.20;33.63;;;4.50;99.90;;;;;;5072803;28;20169;-81
2022/12/11 11:12:25;;;;;;;74.57;33.80;;;4.40;99.90;;;;;;5072347;28;20134;-79
2022/12/11 11:15:25;;;;;;;73.22;35.17;;;4.50;99.90;;;;;;5073381;28;20017;-80
2022/12/11 11:17:54;;;;;;;96.93;46.83;;;4.40;99.90;;;;;;5070593;28;20127;-79
2022/12/11 11:20:26;;;;;;;87.03;43.05;;;4.50;99.90;;;;;;5074119;28;20094;-80
2022/12/11 11:22:58;;;;;;;53.10;26.48;;;4.50;99.90;;;;;;5073639;28;20035;-79
2022/12/11 11:25:27;;;;;;;102.03;51.05;;;4.50;99.90;;;;;;5073387;28;20029;-78
2022/12/11 11:28:03;;;;;;;111.22;56.30;;;4.40;99.90;;;;;;5073726;28;20021;-79
2022/12/11 11:30:38;;;;;;;115.45;55.60;;;4.40;99.90;;;;;;5073657;28;20058;-79
2022/12/11 11:33:13;;;;;;;103.18;46.78;;;4.40;99.90;;;;;;5073421;28;20115;-78
2022/12/11 11:35:50;;;;;;;122.05;60.50;;;4.40;99.90;;;;;;5073584;28;20063;-78
2022/12/11 11:38:19;;;;;;;77.53;35.90;;;4.40;99.90;;;;;;5072824;28;20021;-79
2022/12/11 11:41:04;;;;;;;68.63;35.15;;;4.40;99.90;;;;;;5072660;28;20028;-78
2022/12/11 11:43:48;;;;;;;66.25;33.15;;;4.40;99.90;;;;;;5075227;28;20033;-79
2022/12/11 11:46:32;;;;;;;56.72;28.80;;;4.40;99.90;;;;;;5076713;28;20074;-78
2022/12/11 11:49:19;;;;;;;68.45;33.33;;;4.40;99.90;;;;;;5075733;28;20107;-80
2022/12/11 11:52:16;;;;;;;91.55;44.72;;;4.50;99.90;;;;;;5072972;28;20032;-80
2022/12/11 11:55:08;;;;;;;69.40;33.95;;;4.50;99.90;;;;;;5077102;28;20027;-80
2022/12/11 11:57:54;;;;;;;127.13;56.55;;;4.50;99.90;;;;;;5077079;28;20095;-79
2022/12/11 12:00:22;;;;;;;68.22;33.50;;;4.50;99.90;;;;;;5076882;28;20024;-80
2022/12/11 12:02:55;;;;;;;74.43;35.67;;;4.50;99.90;;;;;;5076961;28;20036;-78
2022/12/11 12:05:32;;;;;;;54.28;27.05;;;4.50;99.90;;;;;;5076797;28;20020;-78
2022/12/11 12:08:23;;;;;;;71.38;35.72;;;4.50;99.90;;;;;;5076247;28;20021;-78
2022/12/11 12:11:29;;;;;;;82.57;43.30;;;4.50;99.90;;;;;;5076090;28;20364;-79
2022/12/11 12:14:13;;;;;;;71.88;34.97;;;4.60;99.90;;;;;;5074082;28;20040;-78
2022/12/11 12:17:03;;;;;;;59.22;27.52;;;4.50;99.90;;;;;;5076475;28;20036;-79
2022/12/11 12:19:58;;;;;;;54.22;23.52;;;4.50;99.90;;;;;;5073428;28;20079;-80
2022/12/11 12:22:47;;;;;;;69.07;35.95;;;4.50;99.90;;;;;;5073925;28;20112;-79
2022/12/11 12:25:28;;;;;;;109.93;46.78;;;4.50;99.90;;;;;;5076056;28;20020;-80
2022/12/11 12:28:06;;;;;;;76.05;38.53;;;4.50;99.90;;;;;;5074881;28;20032;-79
2022/12/11 12:30:44;;;;;;;75.20;40.70;;;4.50;99.90;;;;;;5076418;28;20025;-78
2022/12/11 12:34:00;;;;;;;69.53;34.13;;;4.50;99.90;;;;;;5070032;28;20039;-79
2022/12/11 12:36:56;;;;;;;59.85;30.20;;;4.50;99.90;;;;;;5070630;28;20033;-79
2022/12/11 12:39:27;;;;;;;85.00;42.60;;;4.50;99.90;;;;;;5055371;28;20098;-79
2022/12/11 12:42:10;;;;;;;94.20;45.80;;;4.40;99.90;;;;;;5061422;28;20066;-79
2022/12/11 12:44:58;;;;;;;91.93;48.20;;;4.40;99.90;;;;;;5073439;28;20654;-79
2022/12/11 12:47:27;;;;;;;62.55;31.90;;;4.40;99.90;;;;;;5071821;28;20070;-79
2022/12/11 12:49:54;;;;;;;83.45;39.70;;;4.40;99.90;;;;;;5049145;28;20027;-80
2022/12/11 12:52:26;;;;;;;64.70;33.97;;;4.40;99.90;;;;;;5058259;28;20119;-78
2022/12/11 12:57:48;;;;;;;78.25;38.40;;;4.40;99.90;;;;;;5055154;28;20441;-78
2022/12/11 13:00:27;;;;;;;68.78;35.35;;;4.40;99.90;;;;;;5066853;28;20048;-78
2022/12/11 13:02:55;;;;;;;68.75;35.92;;;4.50;99.90;;;;;;5054437;28;20163;-79
2022/12/11 13:05:27;;;;;;;85.43;41.38;;;4.50;99.90;;;;;;5049495;28;20479;-79
2022/12/11 13:07:57;;;;;;;71.63;35.85;;;4.50;99.90;;;;;;5035921;28;20061;-79
2022/12/11 13:10:35;;;;;;;70.40;34.85;;;4.50;99.90;;;;;;5070544;28;20119;-79
2022/12/11 13:13:02;;;;;;;83.50;41.33;;;4.50;99.90;;;;;;5075499;28;20033;-80
2022/12/11 13:15:39;;;;;;;64.50;33.38;;;4.60;99.90;;;;;;5075661;28;20374;-80
2022/12/11 13:18:33;;;;;;;83.60;40.13;;;4.60;99.90;;;;;;5075713;28;20470;-80